Time;durP1;ratioP1;P1;durP2;ratioP2;P2;SDS_P1;SDS_P2;PMS_P1;PMS_P2;Temp;Humidity;BMP_temperature;BMP_pressure;BME280_temperature;BME280_humidity;BME280_pressure;Samples;Min_cycle;Max_cycle;Signal;HPM_P1;HPM_P2
2024/02/14 00:01:08;;;;;;;5.30;4.80;;;10.00;56.80;;;;;;4996108;28;20183;-61
2024/02/14 00:03:34;;;;;;;6.03;3.97;;;9.90;57.90;;;;;;4994309;28;20438;-59
2024/02/14 00:06:00;;;;;;;5.73;4.20;;;9.80;58.30;;;;;;4996206;28;20516;-61
2024/02/14 00:08:25;;;;;;;5.63;4.73;;;9.70;58.40;;;;;;4993701;28;20442;-61
2024/02/14 00:10:51;;;;;;;5.50;4.33;;;9.80;58.30;;;;;;5006372;28;20186;-61
2024/02/14 00:13:18;;;;;;;6.10;4.50;;;9.90;58.10;;;;;;4981528;28;20222;-60
2024/02/14 00:15:45;;;;;;;5.70;4.53;;;9.90;57.90;;;;;;4981630;28;20650;-60
2024/02/14 00:18:11;;;;;;;6.60;5.23;;;10.00;57.00;;;;;;4961450;28;20486;-61
2024/02/14 00:20:36;;;;;;;8.13;5.30;;;9.90;57.80;;;;;;4967459;28;20439;-61
2024/02/14 00:23:02;;;;;;;6.30;3.90;;;9.90;57.90;;;;;;4964621;28;20758;-61
2024/02/14 00:25:28;;;;;;;5.00;3.97;;;10.00;57.10;;;;;;4968776;28;20709;-60
2024/02/14 00:27:54;;;;;;;6.13;3.93;;;10.00;57.00;;;;;;4976358;28;20309;-61
2024/02/14 00:30:20;;;;;;;5.43;4.50;;;10.00;56.90;;;;;;4968920;28;20191;-62
2024/02/14 00:32:46;;;;;;;5.23;4.37;;;10.10;56.90;;;;;;4961503;28;20495;-59
2024/02/14 00:35:12;;;;;;;5.47;4.00;;;10.00;56.80;;;;;;4962302;28;20818;-61
2024/02/14 00:37:37;;;;;;;7.13;4.97;;;10.00;57.10;;;;;;4964012;28;20207;-61
2024/02/14 00:40:03;;;;;;;5.00;4.00;;;10.00;57.00;;;;;;4975550;28;20213;-61
2024/02/14 00:42:28;;;;;;;6.23;4.10;;;10.00;56.90;;;;;;5011692;28;20233;-61
2024/02/14 00:44:54;;;;;;;5.97;4.20;;;9.90;57.90;;;;;;4984074;28;20249;-61
2024/02/14 00:47:19;;;;;;;4.77;3.57;;;9.90;58.20;;;;;;4971894;28;20207;-61
2024/02/14 00:49:45;;;;;;;7.07;4.10;;;9.60;58.30;;;;;;4982733;28;20227;-60
2024/02/14 00:52:13;;;;;;;5.03;4.00;;;9.60;59.00;;;;;;4963565;28;20282;-61
2024/02/14 00:54:38;;;;;;;4.83;4.13;;;9.20;59.50;;;;;;4979734;28;20207;-61
2024/02/14 00:57:05;;;;;;;7.00;4.27;;;9.00;59.70;;;;;;4966026;28;20523;-60
2024/02/14 00:59:30;;;;;;;7.70;3.63;;;9.10;60.20;;;;;;4984471;28;20219;-61
2024/02/14 01:01:56;;;;;;;8.73;4.97;;;9.20;60.40;;;;;;4964100;28;20469;-61
2024/02/14 01:04:21;;;;;;;4.50;4.10;;;9.30;60.20;;;;;;4963102;28;20195;-61
2024/02/14 01:06:49;;;;;;;4.20;3.80;;;9.20;60.50;;;;;;4960864;28;20219;-61
2024/02/14 01:09:15;;;;;;;6.00;4.10;;;9.30;60.30;;;;;;4963546;28;20195;-61
2024/02/14 01:11:40;;;;;;;5.23;4.30;;;9.40;60.20;;;;;;4967071;28;20493;-60
2024/02/14 01:14:06;;;;;;;5.37;4.60;;;9.50;60.00;;;;;;4961673;28;20199;-61
2024/02/14 01:16:31;;;;;;;5.27;4.60;;;9.40;60.10;;;;;;4966460;28;20302;-60
2024/02/14 01:18:57;;;;;;;4.97;4.10;;;9.60;60.10;;;;;;4988314;28;20302;-61
2024/02/14 01:21:22;;;;;;;9.80;3.93;;;9.60;60.00;;;;;;4993448;28;20196;-61
2024/02/14 01:23:48;;;;;;;7.30;3.77;;;9.60;60.20;;;;;;5012362;28;20180;-60
2024/02/14 01:26:14;;;;;;;7.83;4.43;;;9.60;60.10;;;;;;4972516;28;20231;-60
2024/02/14 01:28:40;;;;;;;5.03;3.80;;;9.70;59.80;;;;;;4979762;28;20287;-61
2024/02/14 01:31:05;;;;;;;6.03;3.97;;;9.50;60.20;;;;;;4965427;28;20191;-61
2024/02/14 01:33:31;;;;;;;6.27;3.70;;;9.50;61.10;;;;;;4963126;28;20180;-61
2024/02/14 01:35:57;;;;;;;6.37;3.60;;;9.60;61.20;;;;;;4967970;28;20883;-61
2024/02/14 01:38:23;;;;;;;8.00;4.10;;;9.80;60.60;;;;;;4974781;28;20682;-61
2024/02/14 01:40:48;;;;;;;4.77;3.70;;;9.70;60.00;;;;;;4980550;28;20466;-60
2024/02/14 01:43:14;;;;;;;4.53;3.90;;;9.70;60.10;;;;;;4970269;28;20439;-61
2024/02/14 01:45:40;;;;;;;4.67;3.80;;;9.60;61.10;;;;;;4989940;28;20241;-60
2024/02/14 01:48:06;;;;;;;4.67;4.27;;;9.70;60.30;;;;;;4984470;28;20175;-60
2024/02/14 01:50:34;;;;;;;5.40;3.90;;;9.60;60.50;;;;;;4971845;28;21087;-61
2024/02/14 01:53:01;;;;;;;5.60;3.80;;;9.50;61.00;;;;;;4980246;28;20451;-61
2024/02/14 01:55:27;;;;;;;5.80;4.03;;;9.50;61.00;;;;;;4969414;28;20479;-59
2024/02/14 01:57:54;;;;;;;4.30;3.90;;;9.50;61.10;;;;;;4980537;28;20467;-59
2024/02/14 02:00:20;;;;;;;7.20;4.50;;;9.50;60.90;;;;;;4964257;28;20465;-61
2024/02/14 02:02:46;;;;;;;4.87;3.60;;;9.20;61.60;;;;;;4962310;28;20442;-61
2024/02/14 02:05:13;;;;;;;7.53;3.87;;;9.00;61.90;;;;;;4965705;28;20496;-61
2024/02/14 02:07:42;;;;;;;4.63;3.57;;;8.90;63.00;;;;;;4968656;28;20482;-60
2024/02/14 02:10:09;;;;;;;5.87;4.30;;;8.90;62.90;;;;;;4962249;28;20457;-61
2024/02/14 02:12:34;;;;;;;4.40;4.00;;;8.70;63.90;;;;;;4979040;28;20470;-59
2024/02/14 02:15:00;;;;;;;7.17;4.30;;;8.90;63.70;;;;;;4980415;28;21028;-61
2024/02/14 02:17:25;;;;;;;6.40;3.80;;;9.10;63.70;;;;;;4963694;28;20900;-61
2024/02/14 02:19:54;;;;;;;6.00;3.83;;;9.40;63.10;;;;;;4968470;28;20341;-60
2024/02/14 02:22:20;;;;;;;5.60;3.27;;;9.40;62.10;;;;;;4963942;28;20195;-61
2024/02/14 02:24:47;;;;;;;3.90;3.53;;;9.30;62.20;;;;;;4961146;28;20954;-61
2024/02/14 02:27:13;;;;;;;4.37;3.47;;;9.40;62.10;;;;;;4963954;28;20637;-61
2024/02/14 02:29:39;;;;;;;7.13;3.90;;;9.20;61.70;;;;;;4965931;28;20521;-61
2024/02/14 02:32:06;;;;;;;4.60;3.53;;;9.30;62.00;;;;;;4963412;28;20550;-61
2024/02/14 02:34:31;;;;;;;6.90;4.47;;;9.30;61.90;;;;;;4963526;28;20635;-59
2024/02/14 02:36:57;;;;;;;6.50;3.53;;;9.30;62.00;;;;;;4969466;28;20538;-61
2024/02/14 02:39:22;;;;;;;4.10;3.60;;;9.00;62.70;;;;;;4985920;28;20221;-61
2024/02/14 02:41:49;;;;;;;4.10;3.57;;;9.00;63.20;;;;;;4998203;28;20187;-61
2024/02/14 02:44:15;;;;;;;4.07;3.33;;;9.10;63.00;;;;;;4980494;28;20297;-61
2024/02/14 02:46:40;;;;;;;3.37;3.07;;;9.30;62.60;;;;;;4988998;28;20545;-60
2024/02/14 02:49:06;;;;;;;5.20;3.37;;;9.20;62.20;;;;;;5003590;28;20195;-61
2024/02/14 02:51:31;;;;;;;5.10;3.37;;;9.20;62.50;;;;;;4980366;28;20218;-60
2024/02/14 02:53:57;;;;;;;6.67;2.60;;;9.10;62.60;;;;;;4970283;28;20206;-61
2024/02/14 02:56:27;;;;;;;4.20;3.33;;;9.10;62.80;;;;;;4968526;28;20223;-59
2024/02/14 02:58:54;;;;;;;5.80;3.77;;;9.20;63.20;;;;;;4986709;28;20642;-60
2024/02/14 03:01:19;;;;;;;5.77;4.00;;;9.20;62.70;;;;;;4987725;28;20453;-61
2024/02/14 03:03:45;;;;;;;5.20;3.47;;;9.30;62.70;;;;;;4982372;28;20442;-61
2024/02/14 03:06:12;;;;;;;3.90;3.03;;;9.20;62.50;;;;;;4969808;28;20218;-61
2024/02/14 03:08:37;;;;;;;3.20;2.90;;;9.40;62.30;;;;;;4996269;28;20194;-61
2024/02/14 03:11:07;;;;;;;5.33;2.93;;;9.70;61.60;;;;;;4980902;28;20415;-62
2024/02/14 03:13:33;;;;;;;4.50;3.50;;;9.80;60.90;;;;;;4980680;28;20666;-61
2024/02/14 03:15:58;;;;;;;4.00;3.53;;;10.00;59.40;;;;;;5007836;28;20442;-61
2024/02/14 03:18:25;;;;;;;3.20;2.93;;;10.00;59.30;;;;;;4995377;28;20229;-60
2024/02/14 03:20:51;;;;;;;5.90;3.73;;;10.20;59.40;;;;;;4969666;28;20218;-61
2024/02/14 03:23:16;;;;;;;4.43;3.43;;;10.20;59.10;;;;;;4969361;28;20469;-60
2024/02/14 03:25:42;;;;;;;5.37;3.63;;;10.40;58.70;;;;;;4976372;28;20196;-61
2024/02/14 03:28:08;;;;;;;5.20;4.70;;;10.70;58.40;;;;;;4966267;28;20213;-61
2024/02/14 03:30:34;;;;;;;4.43;3.80;;;10.80;58.10;;;;;;4968606;28;20223;-61
2024/02/14 03:33:00;;;;;;;4.73;4.27;;;10.90;57.90;;;;;;4965570;28;20447;-60
2024/02/14 03:35:26;;;;;;;6.33;3.83;;;11.00;57.60;;;;;;4965392;28;20441;-61
2024/02/14 03:37:53;;;;;;;6.93;4.30;;;11.00;57.20;;;;;;4967848;28;20211;-60
2024/02/14 03:40:21;;;;;;;5.00;4.50;;;10.80;57.20;;;;;;4967097;28;20458;-61
2024/02/14 03:42:47;;;;;;;6.87;4.70;;;10.70;57.30;;;;;;4964205;28;20883;-60
2024/02/14 03:45:13;;;;;;;5.60;4.10;;;10.40;57.60;;;;;;4971823;28;20446;-61
2024/02/14 03:47:39;;;;;;;4.50;3.40;;;10.30;58.10;;;;;;4989483;28;20207;-60
2024/02/14 03:50:06;;;;;;;4.67;4.00;;;10.40;58.10;;;;;;4988268;28;20948;-61
2024/02/14 03:52:32;;;;;;;7.33;3.73;;;10.50;57.80;;;;;;4966353;28;20199;-59
2024/02/14 03:54:59;;;;;;;8.43;3.57;;;10.60;57.70;;;;;;4969002;28;20882;-60
2024/02/14 03:57:27;;;;;;;4.97;3.97;;;10.50;57.60;;;;;;4966627;28;20222;-60
2024/02/14 03:59:52;;;;;;;7.00;3.50;;;10.30;57.90;;;;;;4967167;28;20478;-60
2024/02/14 04:02:18;;;;;;;6.63;4.23;;;10.30;58.30;;;;;;4968109;28;20477;-61
2024/02/14 04:04:46;;;;;;;3.50;3.20;;;10.40;58.20;;;;;;4967768;28;20218;-62
2024/02/14 04:07:12;;;;;;;4.33;3.60;;;10.40;58.00;;;;;;4966634;28;20851;-60
2024/02/14 04:09:37;;;;;;;4.33;3.40;;;10.40;58.20;;;;;;4974014;28;20451;-61
2024/02/14 04:12:04;;;;;;;3.83;3.50;;;10.30;58.30;;;;;;4967976;28;20183;-61
2024/02/14 04:14:29;;;;;;;3.53;3.00;;;10.30;58.20;;;;;;4980925;28;20577;-61
2024/02/14 04:16:55;;;;;;;4.87;3.57;;;10.30;58.30;;;;;;4968066;28;20455;-60
2024/02/14 04:19:20;;;;;;;4.53;3.80;;;10.40;58.30;;;;;;4967750;28;20219;-60
2024/02/14 04:21:46;;;;;;;8.73;4.00;;;10.50;58.20;;;;;;4968855;28;20199;-61
2024/02/14 04:24:12;;;;;;;4.17;3.87;;;10.50;58.10;;;;;;4965845;28;20194;-61
2024/02/14 04:26:38;;;;;;;6.60;3.70;;;10.50;58.10;;;;;;4966200;28;20561;-61
2024/02/14 04:29:03;;;;;;;6.53;3.70;;;10.30;58.20;;;;;;4966451;28;20651;-61
2024/02/14 04:31:29;;;;;;;8.20;3.87;;;10.10;58.70;;;;;;4990592;28;20520;-61
2024/02/14 04:33:56;;;;;;;5.33;3.73;;;10.10;59.00;;;;;;5007097;28;20258;-60
2024/02/14 04:36:24;;;;;;;3.83;3.43;;;10.00;58.90;;;;;;4967853;28;20212;-60
2024/02/14 04:38:50;;;;;;;4.80;3.60;;;10.00;59.70;;;;;;4973670;28;20521;-61
2024/02/14 04:41:16;;;;;;;5.07;3.90;;;10.10;59.50;;;;;;4970817;28;20496;-60
2024/02/14 04:43:42;;;;;;;4.00;3.60;;;10.10;59.30;;;;;;4971780;28;20439;-61
2024/02/14 04:46:08;;;;;;;4.93;4.10;;;10.10;59.40;;;;;;4975374;28;20473;-60
2024/02/14 04:48:37;;;;;;;7.20;4.60;;;10.10;59.60;;;;;;4969234;28;20202;-60
2024/02/14 04:51:04;;;;;;;4.57;3.70;;;10.10;59.70;;;;;;4981773;28;20442;-60
2024/02/14 04:53:29;;;;;;;5.23;3.50;;;10.20;59.60;;;;;;4968948;28;21008;-61
2024/02/14 04:55:55;;;;;;;7.20;4.20;;;10.30;59.30;;;;;;4962073;28;20494;-61
2024/02/14 04:58:21;;;;;;;6.83;4.40;;;10.40;59.00;;;;;;4960909;28;20225;-60
2024/02/14 05:00:46;;;;;;;5.93;3.60;;;10.50;59.00;;;;;;4962997;28;20191;-60
2024/02/14 05:03:12;;;;;;;6.37;4.00;;;10.50;58.50;;;;;;4986411;28;20712;-60
2024/02/14 05:05:38;;;;;;;9.10;3.93;;;10.50;58.40;;;;;;4969313;28;20187;-60
2024/02/14 05:08:04;;;;;;;4.07;3.40;;;10.50;58.20;;;;;;4977788;28;20274;-60
2024/02/14 05:10:30;;;;;;;5.10;3.40;;;10.50;58.40;;;;;;4984041;28;20192;-60
2024/02/14 05:12:56;;;;;;;4.10;3.40;;;10.50;58.20;;;;;;4980997;28;20470;-60
2024/02/14 05:15:22;;;;;;;5.33;4.20;;;10.50;58.40;;;;;;4967858;28;20458;-60
2024/02/14 05:17:49;;;;;;;5.93;4.03;;;10.60;57.90;;;;;;4978760;28;20450;-60
2024/02/14 05:20:15;;;;;;;5.03;3.93;;;10.50;58.20;;;;;;4965207;28;20278;-60
2024/02/14 05:22:41;;;;;;;4.57;4.17;;;10.40;58.40;;;;;;4962110;28;20439;-61
2024/02/14 05:25:08;;;;;;;7.10;3.60;;;10.50;58.70;;;;;;4962568;28;20868;-61
2024/02/14 05:27:34;;;;;;;4.43;3.40;;;10.60;58.60;;;;;;4959821;28;20210;-61
2024/02/14 05:30:00;;;;;;;4.37;3.37;;;10.70;58.00;;;;;;4966098;28;20485;-61
2024/02/14 05:32:26;;;;;;;3.70;3.40;;;10.80;57.70;;;;;;4963975;28;20472;-61
2024/02/14 05:34:51;;;;;;;3.43;3.13;;;10.90;57.40;;;;;;4964989;28;20642;-61
2024/02/14 05:37:17;;;;;;;4.73;3.70;;;11.10;57.70;;;;;;4979116;28;20216;-61
2024/02/14 05:39:42;;;;;;;5.33;3.83;;;11.20;56.90;;;;;;4974348;28;20314;-61
2024/02/14 05:42:08;;;;;;;3.67;3.37;;;11.20;56.70;;;;;;4979079;28;20184;-61
2024/02/14 05:44:34;;;;;;;5.90;4.80;;;11.20;56.60;;;;;;4979458;28;20205;-61
2024/02/14 05:47:00;;;;;;;7.63;4.00;;;11.30;56.60;;;;;;4977768;28;20204;-61
2024/02/14 05:49:26;;;;;;;6.03;3.73;;;11.20;56.70;;;;;;4966397;28;20195;-60
2024/02/14 05:51:53;;;;;;;5.17;3.40;;;11.20;57.00;;;;;;4967598;28;21097;-61
2024/02/14 05:54:19;;;;;;;3.87;3.43;;;11.10;56.70;;;;;;4966496;28;20199;-59
2024/02/14 05:56:46;;;;;;;5.50;3.50;;;10.80;57.10;;;;;;4961429;28;20494;-61
2024/02/14 05:59:11;;;;;;;3.00;2.73;;;10.70;57.20;;;;;;4962971;28;20494;-61
2024/02/14 06:01:37;;;;;;;3.40;3.10;;;10.60;57.20;;;;;;4963257;28;20449;-60
2024/02/14 06:04:03;;;;;;;6.00;3.73;;;10.90;56.90;;;;;;4962095;28;20194;-60
2024/02/14 06:06:28;;;;;;;5.73;3.53;;;10.90;56.20;;;;;;4962463;28;20199;-61
2024/02/14 06:08:55;;;;;;;5.97;4.57;;;10.90;56.90;;;;;;4965568;28;20290;-59
2024/02/14 06:11:21;;;;;;;9.30;5.43;;;10.80;57.00;;;;;;4960847;28;20555;-61
2024/02/14 06:13:47;;;;;;;4.80;4.07;;;10.80;57.50;;;;;;4962935;28;20522;-61
2024/02/14 06:16:13;;;;;;;4.90;3.40;;;10.80;57.70;;;;;;4962655;28;20219;-60
2024/02/14 06:18:40;;;;;;;6.83;3.17;;;10.80;57.30;;;;;;4964264;28;20506;-60
2024/02/14 06:21:06;;;;;;;4.20;3.10;;;10.90;59.00;;;;;;4963763;28;20475;-61
2024/02/14 06:23:32;;;;;;;7.67;3.50;;;11.10;57.80;;;;;;4960376;28;20439;-62
2024/02/14 06:25:58;;;;;;;6.20;3.13;;;11.20;58.20;;;;;;4960795;28;20493;-60
2024/02/14 06:28:24;;;;;;;3.93;3.60;;;11.30;58.40;;;;;;4964530;28;20199;-61
2024/02/14 06:30:50;;;;;;;3.03;2.67;;;11.60;56.90;;;;;;4962502;28;21688;-61
2024/02/14 06:33:15;;;;;;;4.60;2.80;;;11.60;56.30;;;;;;4961082;28;20686;-61
2024/02/14 06:35:41;;;;;;;5.97;2.70;;;11.50;55.90;;;;;;4960895;28;20227;-60
2024/02/14 06:38:06;;;;;;;4.63;2.80;;;11.40;55.70;;;;;;4970064;28;20208;-59
2024/02/14 06:40:33;;;;;;;3.67;3.00;;;11.50;56.00;;;;;;4979763;28;20218;-61
2024/02/14 06:42:59;;;;;;;3.53;2.10;;;11.60;54.90;;;;;;4978565;28;20216;-60
2024/02/14 06:45:26;;;;;;;5.10;2.90;;;11.60;54.00;;;;;;4978447;28;20442;-60
2024/02/14 06:47:51;;;;;;;4.40;2.10;;;11.80;54.50;;;;;;4971267;28;20477;-61
2024/02/14 06:50:17;;;;;;;4.70;2.60;;;11.80;54.10;;;;;;4965216;28;20446;-59
2024/02/14 06:52:42;;;;;;;3.63;2.97;;;11.60;54.10;;;;;;4965430;28;20654;-61
2024/02/14 06:55:08;;;;;;;4.40;3.27;;;11.50;54.70;;;;;;4990986;28;20191;-60
2024/02/14 06:57:33;;;;;;;5.00;3.07;;;11.70;54.60;;;;;;4963083;28;20207;-61
2024/02/14 06:59:59;;;;;;;4.13;3.00;;;11.80;53.70;;;;;;4967009;28;20918;-61
2024/02/14 07:02:27;;;;;;;3.60;3.20;;;11.90;54.10;;;;;;4965469;28;20188;-58
2024/02/14 07:04:54;;;;;;;3.53;2.67;;;12.00;53.30;;;;;;4965525;28;20184;-61
2024/02/14 07:07:19;;;;;;;5.90;3.70;;;12.00;53.90;;;;;;4964971;28;20983;-61
2024/02/14 07:09:45;;;;;;;5.30;3.60;;;12.20;54.40;;;;;;4966240;28;20462;-58
2024/02/14 07:12:10;;;;;;;6.93;3.57;;;12.20;53.40;;;;;;4966591;28;20175;-62
2024/02/14 07:14:36;;;;;;;5.83;3.77;;;12.30;53.70;;;;;;4966520;28;20191;-59
2024/02/14 07:17:02;;;;;;;8.90;3.47;;;12.40;53.40;;;;;;4966789;28;20207;-61
2024/02/14 07:19:28;;;;;;;6.60;3.60;;;12.40;53.60;;;;;;4966771;28;20216;-61
2024/02/14 07:21:53;;;;;;;3.23;2.90;;;12.70;53.20;;;;;;4966231;28;20187;-59
2024/02/14 07:24:19;;;;;;;6.13;2.47;;;12.90;52.40;;;;;;4967136;28;20783;-60
2024/02/14 07:26:44;;;;;;;3.23;2.57;;;13.00;51.60;;;;;;4979198;28;20609;-61
2024/02/14 07:29:10;;;;;;;7.30;4.37;;;13.10;51.40;;;;;;4967478;28;20252;-60
2024/02/14 07:31:35;;;;;;;5.80;3.77;;;13.20;51.20;;;;;;4972659;28;20188;-61
2024/02/14 07:34:02;;;;;;;5.23;3.00;;;13.30;50.80;;;;;;4969608;28;20175;-61
2024/02/14 07:36:29;;;;;;;4.00;3.17;;;13.20;50.80;;;;;;4968989;28;20216;-61
2024/02/14 07:38:54;;;;;;;4.03;2.90;;;13.40;50.80;;;;;;4966414;28;20474;-60
2024/02/14 07:41:20;;;;;;;5.60;3.80;;;13.50;51.00;;;;;;4981952;28;20457;-61
2024/02/14 07:43:45;;;;;;;4.80;2.97;;;13.60;51.00;;;;;;4980647;28;21790;-61
2024/02/14 07:46:15;;;;;;;2.80;2.60;;;13.70;50.70;;;;;;4982058;28;20243;-61
2024/02/14 07:48:41;;;;;;;5.83;3.10;;;13.80;50.70;;;;;;4989931;28;20716;-62
2024/02/14 07:51:09;;;;;;;4.33;2.73;;;13.90;50.60;;;;;;4974344;28;20447;-59
2024/02/14 07:53:35;;;;;;;3.07;2.57;;;14.10;50.70;;;;;;4978803;28;20202;-61
2024/02/14 07:56:01;;;;;;;3.43;3.00;;;14.20;50.80;;;;;;4973526;28;20478;-61
2024/02/14 07:58:26;;;;;;;4.80;3.20;;;14.30;50.80;;;;;;4969449;28;20695;-62
2024/02/14 08:00:52;;;;;;;4.33;3.13;;;14.30;51.00;;;;;;4966209;28;20224;-60
2024/02/14 08:03:17;;;;;;;5.20;3.57;;;14.30;51.00;;;;;;4967919;28;20198;-61
2024/02/14 08:05:43;;;;;;;5.30;3.50;;;14.30;51.30;;;;;;4973642;28;20183;-62
2024/02/14 08:08:08;;;;;;;3.60;3.30;;;14.20;51.00;;;;;;4983743;28;20175;-62
2024/02/14 08:10:34;;;;;;;3.90;3.50;;;14.20;51.10;;;;;;4968644;28;20196;-61
2024/02/14 08:12:59;;;;;;;3.87;3.33;;;14.20;51.20;;;;;;4967695;28;20188;-61
2024/02/14 08:15:25;;;;;;;3.10;2.80;;;14.30;51.20;;;;;;4968016;28;20989;-61
2024/02/14 08:17:53;;;;;;;6.10;2.90;;;14.40;50.90;;;;;;4966074;28;20210;-61
2024/02/14 08:20:19;;;;;;;6.73;3.00;;;14.40;51.00;;;;;;4971479;28;20211;-59
2024/02/14 08:22:45;;;;;;;2.83;2.60;;;14.40;50.60;;;;;;4965387;28;20900;-62
2024/02/14 08:25:11;;;;;;;5.30;3.57;;;14.40;51.10;;;;;;4979927;28;20606;-60
2024/02/14 08:27:37;;;;;;;8.40;3.70;;;14.20;51.50;;;;;;4972145;28;20250;-61
2024/02/14 08:30:04;;;;;;;3.90;3.20;;;13.80;52.70;;;;;;4968130;28;20926;-61
2024/02/14 08:32:31;;;;;;;4.40;3.80;;;13.50;53.20;;;;;;4964990;28;20192;-60
2024/02/14 08:34:56;;;;;;;5.10;3.70;;;13.50;54.00;;;;;;4966428;28;20585;-62
2024/02/14 08:37:24;;;;;;;10.10;6.70;;;13.40;53.50;;;;;;4968551;28;20557;-61
2024/02/14 08:39:50;;;;;;;6.60;4.60;;;13.30;54.10;;;;;;4965517;28;20222;-61
2024/02/14 08:42:15;;;;;;;6.57;5.10;;;13.20;55.20;;;;;;4979802;28;20454;-60
2024/02/14 08:44:41;;;;;;;7.43;4.93;;;13.10;55.80;;;;;;4964765;28;20206;-63
2024/02/14 08:47:07;;;;;;;5.70;3.67;;;13.20;55.70;;;;;;4961885;28;20219;-62
2024/02/14 08:49:32;;;;;;;8.90;4.03;;;13.20;54.80;;;;;;4971540;28;20214;-62
2024/02/14 08:51:59;;;;;;;4.97;3.57;;;13.10;54.80;;;;;;4976293;28;20241;-61
2024/02/14 08:54:24;;;;;;;5.53;4.20;;;13.00;54.80;;;;;;4965389;28;20928;-61
2024/02/14 08:56:52;;;;;;;4.87;4.13;;;13.00;55.00;;;;;;4988358;28;20280;-61
2024/02/14 08:59:18;;;;;;;6.83;3.50;;;13.30;54.90;;;;;;5003769;28;20776;-61
2024/02/14 09:01:43;;;;;;;6.40;3.97;;;13.50;54.50;;;;;;4991308;28;20439;-62
2024/02/14 09:04:09;;;;;;;5.33;4.00;;;13.80;54.10;;;;;;4963131;28;20271;-62
2024/02/14 09:06:37;;;;;;;4.53;3.80;;;13.70;54.00;;;;;;4991056;28;20242;-61
2024/02/14 09:09:03;;;;;;;7.60;3.70;;;13.80;54.10;;;;;;4969556;28;20191;-62
2024/02/14 09:11:28;;;;;;;6.63;4.07;;;14.10;53.80;;;;;;4963916;28;21156;-61
2024/02/14 09:13:55;;;;;;;3.73;3.20;;;14.30;53.10;;;;;;4957788;28;20443;-63
2024/02/14 09:16:23;;;;;;;5.70;3.87;;;14.50;52.60;;;;;;4973474;28;20219;-62
2024/02/14 09:18:48;;;;;;;5.17;4.67;;;14.60;52.30;;;;;;4955663;28;20494;-61
2024/02/14 09:21:15;;;;;;;4.07;3.50;;;14.70;52.10;;;;;;4974705;28;21393;-62
2024/02/14 09:23:41;;;;;;;4.13;3.70;;;14.80;51.80;;;;;;4975381;28;20196;-60
2024/02/14 09:26:07;;;;;;;6.10;4.17;;;14.90;51.40;;;;;;4977033;28;20956;-61
2024/02/14 09:28:34;;;;;;;6.20;3.23;;;15.00;51.00;;;;;;5002504;28;20423;-61
2024/02/14 09:31:00;;;;;;;5.20;3.30;;;15.10;50.40;;;;;;4966463;28;20910;-63
2024/02/14 09:33:26;;;;;;;3.23;2.87;;;15.00;50.10;;;;;;4989439;28;20430;-61
2024/02/14 09:35:52;;;;;;;3.27;2.97;;;15.00;50.20;;;;;;4978969;28;20203;-61
2024/02/14 09:38:17;;;;;;;6.40;3.17;;;14.90;50.40;;;;;;4991560;28;20211;-62
2024/02/14 09:40:43;;;;;;;3.03;2.73;;;15.00;50.50;;;;;;5001406;28;20183;-61
2024/02/14 09:43:24;;;;;;;3.27;2.67;;;15.00;50.70;;;;;;4979107;28;20694;-61
2024/02/14 09:45:52;;;;;;;2.90;2.67;;;15.20;50.80;;;;;;4995507;28;20516;-62
2024/02/14 09:48:19;;;;;;;3.40;2.40;;;15.30;50.60;;;;;;4970520;28;22246;-62
2024/02/14 09:50:46;;;;;;;2.60;2.23;;;15.10;51.00;;;;;;4995433;28;20481;-62
2024/02/14 09:53:13;;;;;;;3.30;2.50;;;15.00;51.10;;;;;;4970912;28;20415;-63
2024/02/14 09:55:40;;;;;;;4.17;2.37;;;15.10;51.10;;;;;;4973545;28;20523;-61
2024/02/14 09:58:06;;;;;;;4.90;2.83;;;15.20;50.90;;;;;;4988613;28;20445;-60
2024/02/14 10:00:33;;;;;;;6.10;2.70;;;15.40;51.00;;;;;;4965745;28;20534;-62
2024/02/14 10:02:59;;;;;;;3.70;2.63;;;15.40;51.20;;;;;;4962883;28;20457;-62
2024/02/14 10:05:25;;;;;;;3.50;2.80;;;15.50;50.60;;;;;;4990444;28;20438;-64
2024/02/14 10:07:50;;;;;;;3.00;2.70;;;15.70;50.70;;;;;;4971723;28;20211;-62
2024/02/14 10:10:16;;;;;;;3.43;2.70;;;15.80;50.40;;;;;;4982895;28;21016;-62
2024/02/14 10:12:42;;;;;;;6.20;3.30;;;15.70;50.50;;;;;;4976474;28;20175;-61
2024/02/14 10:15:08;;;;;;;3.00;2.73;;;16.00;50.40;;;;;;4989175;28;20183;-62
2024/02/14 10:17:34;;;;;;;4.47;2.83;;;16.10;49.90;;;;;;4979077;28;20465;-62
2024/02/14 10:20:05;;;;;;;5.77;2.27;;;16.20;50.00;;;;;;4986032;28;20995;-61
2024/02/14 10:22:38;;;;;;;3.13;2.87;;;16.10;50.40;;;;;;4976569;28;20195;-63
2024/02/14 10:25:08;;;;;;;4.33;2.30;;;16.10;50.70;;;;;;4988633;28;20553;-62
2024/02/14 10:27:38;;;;;;;3.70;2.40;;;16.10;51.00;;;;;;4995907;28;20469;-63
2024/02/14 10:30:10;;;;;;;2.60;1.70;;;16.30;51.20;;;;;;4975459;28;20839;-61
2024/02/14 10:32:37;;;;;;;1.70;1.30;;;16.30;51.50;;;;;;4988441;28;20453;-60
2024/02/14 10:35:11;;;;;;;3.63;1.70;;;15.80;51.50;;;;;;4981010;28;20498;-62
2024/02/14 10:37:38;;;;;;;1.87;1.40;;;15.70;52.20;;;;;;4973947;28;20474;-59
2024/02/14 10:40:04;;;;;;;2.70;1.47;;;15.80;52.40;;;;;;4986820;28;20477;-62
2024/02/14 10:42:33;;;;;;;1.57;1.47;;;16.20;52.20;;;;;;4998011;28;20443;-59
2024/02/14 10:45:00;;;;;;;1.77;1.63;;;16.50;51.90;;;;;;4980493;28;20441;-61
2024/02/14 10:47:31;;;;;;;4.23;1.70;;;16.60;52.00;;;;;;4966210;28;20459;-62
2024/02/14 10:50:07;;;;;;;2.80;1.50;;;16.80;51.30;;;;;;4962609;28;21453;-60
2024/02/14 10:52:36;;;;;;;2.73;1.60;;;17.00;51.10;;;;;;4989116;28;20418;-62
2024/02/14 10:55:03;;;;;;;2.60;1.70;;;17.20;51.20;;;;;;4985533;28;20438;-73
2024/02/14 10:57:32;;;;;;;1.73;1.63;;;17.40;50.60;;;;;;4986446;28;20855;-61
2024/02/14 11:00:03;;;;;;;1.97;1.53;;;17.50;50.50;;;;;;4991282;28;20471;-61
2024/02/14 11:02:30;;;;;;;1.47;1.37;;;17.60;50.50;;;;;;4983400;28;20446;-64
2024/02/14 11:04:57;;;;;;;2.30;1.50;;;18.00;50.20;;;;;;4988560;28;20446;-66
2024/02/14 11:07:22;;;;;;;1.80;1.70;;;18.30;49.70;;;;;;4985223;28;20522;-66
2024/02/14 11:10:00;;;;;;;2.10;1.27;;;18.50;49.10;;;;;;4976150;28;20435;-73
2024/02/14 11:12:25;;;;;;;7.60;1.37;;;18.70;49.20;;;;;;4969084;28;20580;-68
2024/02/14 11:14:52;;;;;;;2.70;1.30;;;18.80;48.60;;;;;;4992544;28;20431;-64
2024/02/14 11:17:24;;;;;;;2.27;1.33;;;18.70;48.70;;;;;;4983332;28;20215;-63
2024/02/14 11:19:51;;;;;;;1.60;1.47;;;18.60;48.70;;;;;;4968802;28;20489;-63
2024/02/14 11:22:21;;;;;;;1.73;1.40;;;18.50;49.00;;;;;;4967784;28;20446;-69
2024/02/14 11:24:47;;;;;;;2.53;1.20;;;18.20;49.70;;;;;;4971123;28;20451;-70
2024/02/14 11:27:13;;;;;;;1.63;1.00;;;18.00;49.90;;;;;;4978664;28;20531;-64
2024/02/14 11:29:41;;;;;;;2.60;1.10;;;17.90;50.80;;;;;;5008740;28;20903;-69
2024/02/14 11:32:10;;;;;;;1.30;1.20;;;17.80;51.00;;;;;;4978915;28;20195;-67
2024/02/14 11:34:35;;;;;;;2.60;1.40;;;17.80;50.90;;;;;;4977163;28;20438;-64
2024/02/14 11:37:01;;;;;;;2.67;1.20;;;17.70;51.20;;;;;;4995999;28;20957;-66
2024/02/14 11:39:27;;;;;;;1.80;1.40;;;17.70;51.40;;;;;;4981958;28;20207;-69
2024/02/14 11:41:52;;;;;;;4.60;2.70;;;17.80;51.50;;;;;;5002659;28;20217;-66
2024/02/14 11:44:23;;;;;;;4.13;1.73;;;17.70;51.50;;;;;;5004907;28;20183;-64
2024/02/14 11:46:49;;;;;;;4.43;2.90;;;17.60;51.90;;;;;;4996176;28;20211;-70
2024/02/14 11:49:16;;;;;;;2.23;1.80;;;17.60;52.30;;;;;;4994537;28;20426;-65
2024/02/14 11:51:42;;;;;;;2.50;1.50;;;17.30;52.80;;;;;;4980315;28;20206;-64
2024/02/14 11:54:09;;;;;;;2.17;1.67;;;17.30;53.20;;;;;;4985540;28;20431;-64
2024/02/14 11:56:36;;;;;;;2.70;1.40;;;17.40;53.10;;;;;;4991553;28;20222;-64
2024/02/14 11:59:03;;;;;;;1.53;1.03;;;17.20;53.20;;;;;;4992354;28;20517;-64
2024/02/14 12:01:33;;;;;;;0.93;0.93;;;17.10;53.40;;;;;;4992474;28;20451;-69
2024/02/14 12:04:00;;;;;;;2.30;2.00;;;17.00;53.70;;;;;;4996635;28;20462;-70
2024/02/14 12:06:34;;;;;;;4.00;2.10;;;17.00;54.30;;;;;;4987266;28;20435;-67
2024/02/14 12:09:09;;;;;;;2.17;1.20;;;17.10;54.20;;;;;;4981735;28;20442;-64
2024/02/14 12:11:40;;;;;;;1.47;1.17;;;17.00;54.40;;;;;;4983941;28;20446;-70
2024/02/14 12:14:10;;;;;;;3.83;1.30;;;17.30;54.30;;;;;;4985151;28;20419;-64
2024/02/14 12:16:37;;;;;;;2.13;1.10;;;17.40;54.00;;;;;;4990727;28;20508;-66
2024/02/14 12:19:10;;;;;;;1.30;0.93;;;17.50;53.80;;;;;;4989343;28;20462;-64
2024/02/14 12:21:37;;;;;;;2.80;1.00;;;17.20;53.60;;;;;;4990870;28;20523;-64
2024/02/14 12:24:06;;;;;;;2.77;1.20;;;17.00;54.30;;;;;;4999280;28;20445;-63
2024/02/14 12:26:32;;;;;;;1.60;0.90;;;16.90;54.80;;;;;;4972537;28;20467;-69
2024/02/14 12:28:58;;;;;;;5.60;1.57;;;16.90;54.80;;;;;;5003713;28;20445;-68
2024/02/14 12:31:24;;;;;;;4.57;3.07;;;17.00;55.10;;;;;;4995792;28;20192;-70
2024/02/14 12:33:52;;;;;;;2.47;2.00;;;17.10;54.60;;;;;;4986070;28;20248;-68
2024/02/14 12:36:18;;;;;;;1.77;1.20;;;17.00;54.90;;;;;;4997868;28;20478;-69
2024/02/14 12:38:44;;;;;;;2.40;1.60;;;17.00;55.00;;;;;;4984531;28;20504;-70
2024/02/14 12:41:10;;;;;;;5.33;1.20;;;17.00;55.20;;;;;;4990009;28;20189;-68
2024/02/14 12:43:36;;;;;;;2.90;1.53;;;17.10;55.00;;;;;;4967831;28;20454;-73